createdAt,value
2023-01-12T00:02:20.124Z,44.90
2023-01-12T00:07:23.871Z,45.00
2023-01-12T00:12:27.051Z,44.80
2023-01-12T00:17:31.549Z,44.70
2023-01-12T00:22:34.772Z,44.60
2023-01-12T00:27:37.883Z,44.50
2023-01-12T00:32:42.463Z,44.40
2023-01-12T00:37:45.610Z,45.10
2023-01-12T00:43:06.012Z,44.20
2023-01-12T00:48:12.814Z,43.90
2023-01-12T00:53:16.901Z,43.70
2023-01-12T00:58:20.042Z,43.70
2023-01-12T01:03:24.611Z,43.60
2023-01-12T01:08:27.788Z,43.50
2023-01-12T01:13:31.163Z,43.40
2023-01-12T01:18:36.371Z,43.40
2023-01-12T01:23:40.687Z,43.40
2023-01-12T01:28:44.898Z,43.40
2023-01-12T01:33:50.137Z,45.20
2023-01-12T01:38:53.372Z,44.70
2023-01-12T01:43:59.791Z,44.70
2023-01-12T01:49:15.193Z,45.00
2023-01-12T01:54:18.563Z,45.00
2023-01-12T01:59:24.669Z,45.00
2023-01-12T02:04:29.369Z,45.00
2023-01-12T02:09:32.833Z,45.00
2023-01-12T02:14:53.170Z,45.00
2023-01-12T02:20:39.982Z,45.10
2023-01-12T02:26:07.852Z,45.20
2023-01-12T02:31:42.253Z,45.10
2023-01-12T02:36:52.488Z,45.20
2023-01-12T02:42:23.420Z,45.10
2023-01-12T02:47:45.398Z,45.00
2023-01-12T02:52:55.189Z,45.00
2023-01-12T02:57:59.286Z,45.00
2023-01-12T03:03:03.757Z,45.00
2023-01-12T03:08:07.448Z,45.00
2023-01-12T03:13:14.816Z,45.20
2023-01-12T03:18:25.383Z,45.30
2023-01-12T03:23:35.845Z,45.40
2023-01-12T03:28:43.219Z,45.40
2023-01-12T03:33:47.825Z,45.30
2023-01-12T03:39:12.580Z,45.40
2023-01-12T03:44:21.042Z,45.60
2023-01-12T03:49:30.830Z,45.40
2023-01-12T03:54:35.662Z,45.50
2023-01-12T03:59:38.909Z,45.20
2023-01-12T04:04:43.519Z,45.20
2023-01-12T04:09:46.681Z,45.20
2023-01-12T04:14:50.132Z,45.20
2023-01-12T04:19:54.618Z,45.30
2023-01-12T04:24:57.694Z,45.20
2023-01-12T04:30:00.832Z,45.20
2023-01-12T04:35:06.241Z,45.10
2023-01-12T04:40:11.330Z,45.10
2023-01-12T04:45:14.486Z,45.00
2023-01-12T04:50:19.109Z,45.00
2023-01-12T04:55:22.198Z,44.80
2023-01-12T05:00:25.937Z,44.80
2023-01-12T05:05:31.616Z,44.80
2023-01-12T05:10:34.730Z,45.50
2023-01-12T05:15:37.793Z,44.80
2023-01-12T05:20:42.250Z,44.70
2023-01-12T05:25:45.321Z,44.70
2023-01-12T05:30:48.484Z,44.60
2023-01-12T05:35:52.951Z,44.60
2023-01-12T05:40:56.054Z,44.50
2023-01-12T05:46:03.574Z,44.50
2023-01-12T05:51:10.150Z,44.30
2023-01-12T05:56:18.484Z,44.30
2023-01-12T06:01:22.218Z,44.20
2023-01-12T06:06:30.645Z,44.30
2023-01-12T06:11:51.047Z,44.20
2023-01-12T06:16:54.142Z,44.20
2023-01-12T06:21:59.630Z,44.30
2023-01-12T06:27:03.045Z,44.50
2023-01-12T06:32:06.348Z,44.40
2023-01-12T06:37:13.065Z,44.20
2023-01-12T06:42:31.922Z,44.10
2023-01-12T06:47:35.115Z,44.00
2023-01-12T06:52:39.683Z,44.00
2023-01-12T06:57:42.863Z,43.80
2023-01-12T07:02:46.084Z,43.90
2023-01-12T07:07:50.582Z,43.90
2023-01-12T07:12:53.660Z,43.60
2023-01-12T07:17:57.325Z,43.70
2023-01-12T07:23:01.983Z,43.60
2023-01-12T07:28:05.270Z,43.50
2023-01-12T07:33:09.283Z,43.60
2023-01-12T07:38:13.760Z,43.40
2023-01-12T07:43:19.077Z,43.30
2023-01-12T07:48:22.844Z,43.30
2023-01-12T07:53:27.627Z,43.30
2023-01-12T07:58:30.932Z,43.20
2023-01-12T08:03:34.089Z,43.40
2023-01-12T08:08:38.574Z,43.40
2023-01-12T08:13:41.793Z,43.00
2023-01-12T08:18:49.320Z,43.10
2023-01-12T08:23:58.805Z,43.10
2023-01-12T08:29:06.061Z,42.90
2023-01-12T08:34:10.732Z,42.80
2023-01-12T08:39:15.278Z,43.10
2023-01-12T08:44:18.405Z,42.80
2023-01-12T08:49:24.342Z,43.10
2023-01-12T08:54:29.024Z,43.10
2023-01-12T08:59:32.168Z,42.90
2023-01-12T09:04:35.294Z,43.10
2023-01-12T09:09:40.035Z,42.30
2023-01-12T09:14:43.131Z,42.00
2023-01-12T09:19:49.861Z,42.20
2023-01-12T09:24:54.333Z,42.00
2023-01-12T09:29:57.425Z,41.90
2023-01-12T09:35:00.625Z,41.80
2023-01-12T09:40:05.802Z,41.60
2023-01-12T09:45:39.633Z,41.00
2023-01-12T09:50:46.552Z,40.70
2023-01-12T09:55:57.760Z,40.60
2023-01-12T10:01:10.618Z,40.70
2023-01-12T10:06:17.415Z,40.70
2023-01-12T10:11:26.934Z,40.80
2023-01-12T10:16:41.828Z,40.90
2023-01-12T10:21:45.287Z,41.00
2023-01-12T10:26:57.041Z,41.10
2023-01-12T10:32:00.441Z,40.30
2023-01-12T10:37:10.441Z,41.20
2023-01-12T10:42:41.396Z,40.40
2023-01-12T10:47:45.375Z,39.20
2023-01-12T10:52:50.788Z,40.00
2023-01-12T10:57:55.766Z,40.20
2023-01-12T11:02:59.242Z,40.20
2023-01-12T11:08:02.626Z,40.10
2023-01-12T11:13:08.954Z,40.00
2023-01-12T11:18:32.408Z,39.70
2023-01-12T11:23:40.186Z,38.70
2023-01-12T11:28:48.625Z,39.00
2023-01-12T11:33:57.107Z,39.00
2023-01-12T11:39:04.207Z,39.00
2023-01-12T11:44:14.811Z,38.90
2023-01-12T11:49:24.172Z,38.30
2023-01-12T11:54:29.461Z,38.90
2023-01-12T11:59:43.581Z,38.70
2023-01-12T12:05:00.848Z,37.30
2023-01-12T12:10:21.255Z,37.80
2023-01-12T12:15:33.646Z,38.20
2023-01-12T12:20:44.334Z,38.10
2023-01-12T12:25:57.498Z,38.50
2023-01-12T12:31:13.896Z,38.00
2023-01-12T12:36:23.873Z,37.60
2023-01-12T12:41:55.542Z,38.30
2023-01-12T12:47:09.146Z,38.00
2023-01-12T12:52:13.914Z,38.30
2023-01-12T12:57:17.290Z,39.20
2023-01-12T13:02:38.681Z,38.70
2023-01-12T13:07:52.157Z,37.70
2023-01-12T13:13:05.253Z,37.30
2023-01-12T13:18:42.077Z,37.60
2023-01-12T13:23:50.711Z,38.30
2023-01-12T13:29:27.324Z,38.00
2023-01-12T13:34:46.148Z,37.00
2023-01-12T13:39:57.033Z,37.30
2023-01-12T13:45:00.182Z,37.60
2023-01-12T13:50:05.505Z,38.20
2023-01-12T13:55:20.591Z,37.60
2023-01-12T14:00:24.806Z,37.10
2023-01-12T14:05:44.933Z,38.10
2023-01-12T14:10:54.855Z,37.30
2023-01-12T14:16:19.584Z,37.20
2023-01-12T14:21:27.519Z,37.60
2023-01-12T14:26:31.748Z,37.10
2023-01-12T14:31:39.514Z,38.00
2023-01-12T14:36:46.422Z,37.50
2023-01-12T14:42:09.631Z,37.40
2023-01-12T14:47:24.802Z,37.60
2023-01-12T14:52:32.810Z,36.90
2023-01-12T14:57:37.145Z,37.00
2023-01-12T15:02:42.049Z,37.60
2023-01-12T15:07:57.443Z,37.40
2023-01-12T15:13:22.948Z,36.50
2023-01-12T15:18:43.564Z,36.40
2023-01-12T15:24:07.087Z,37.50
2023-01-12T15:29:10.187Z,37.30
2023-01-12T15:34:13.382Z,37.60
2023-01-12T15:39:17.876Z,37.70
2023-01-12T15:44:22.501Z,37.40
2023-01-12T15:49:25.661Z,37.20
2023-01-12T15:54:30.199Z,37.40
2023-01-12T15:59:33.389Z,37.10
2023-01-12T16:04:42.731Z,37.40
2023-01-12T16:09:47.937Z,37.40
2023-01-12T16:14:51.242Z,37.40
2023-01-12T16:19:54.590Z,37.50
2023-01-12T16:24:59.092Z,37.60
2023-01-12T16:30:02.183Z,37.20
2023-01-12T16:35:05.772Z,37.40
2023-01-12T16:40:12.383Z,37.50
2023-01-12T16:45:15.495Z,37.20
2023-01-12T16:50:18.710Z,37.60
2023-01-12T16:55:23.275Z,37.60
2023-01-12T17:00:27.995Z,37.50
2023-01-12T17:05:31.438Z,37.70
2023-01-12T17:10:36.355Z,37.60
2023-01-12T17:15:40.391Z,37.30
2023-01-12T17:20:43.600Z,37.40
2023-01-12T17:25:48.320Z,37.60
2023-01-12T17:30:51.480Z,37.30
2023-01-12T17:35:54.603Z,37.50
2023-01-12T17:40:59.093Z,37.50
2023-01-12T17:46:03.732Z,37.30
2023-01-12T17:51:11.732Z,37.50
2023-01-12T17:56:16.210Z,37.40
2023-01-12T18:01:19.570Z,37.30
2023-01-12T18:06:27.041Z,37.50
2023-01-12T18:11:32.161Z,37.50
2023-01-12T18:16:35.951Z,37.70
2023-01-12T18:21:39.040Z,37.40
2023-01-12T18:26:43.589Z,37.50
2023-01-12T18:31:47.343Z,37.40
2023-01-12T18:36:50.503Z,37.60
2023-01-12T18:42:12.261Z,37.60
2023-01-12T18:47:33.749Z,37.40
2023-01-12T18:52:59.981Z,37.60
2023-01-12T18:58:04.540Z,37.70
2023-01-12T19:03:07.727Z,37.60
2023-01-12T19:08:24.809Z,37.70
2023-01-12T19:13:46.622Z,37.70
2023-01-12T19:18:49.772Z,37.60
2023-01-12T19:24:10.539Z,37.70
2023-01-12T19:29:15.020Z,37.60
2023-01-12T19:34:18.831Z,37.50
2023-01-12T19:39:34.146Z,37.40
2023-01-12T19:44:38.667Z,37.50
2023-01-12T19:49:41.823Z,37.40
2023-01-12T19:54:44.946Z,37.50
2023-01-12T19:59:49.421Z,37.60
2023-01-12T20:04:52.687Z,37.60
2023-01-12T20:09:55.798Z,37.60
2023-01-12T20:15:00.310Z,37.60
2023-01-12T20:20:04.189Z,37.60
2023-01-12T20:25:08.327Z,37.80
2023-01-12T20:30:16.380Z,37.70
2023-01-12T20:35:23.501Z,37.50
2023-01-12T20:40:26.703Z,37.50
2023-01-12T20:45:31.455Z,37.50
2023-01-12T20:50:34.839Z,37.60
2023-01-12T20:55:42.869Z,37.60
2023-01-12T21:00:49.315Z,37.30
2023-01-12T21:05:52.484Z,37.50
2023-01-12T21:10:55.889Z,37.50
2023-01-12T21:16:02.763Z,37.60
2023-01-12T21:21:07.033Z,37.50
2023-01-12T21:26:11.238Z,37.60
2023-01-12T21:31:16.037Z,37.50
2023-01-12T21:36:19.887Z,37.50
2023-01-12T21:41:24.916Z,37.60
2023-01-12T21:46:31.586Z,37.70
2023-01-12T21:51:34.727Z,37.60
2023-01-12T21:56:37.808Z,37.70
2023-01-12T22:01:42.363Z,37.80
2023-01-12T22:06:45.558Z,37.90
2023-01-12T22:11:48.659Z,37.90
2023-01-12T22:16:53.208Z,37.90
2023-01-12T22:21:56.310Z,37.70
2023-01-12T22:26:59.415Z,37.80
2023-01-12T22:32:03.970Z,37.80
2023-01-12T22:37:07.327Z,37.80
2023-01-12T22:42:10.439Z,37.70
2023-01-12T22:47:14.923Z,37.80
2023-01-12T22:52:18.056Z,37.60
2023-01-12T22:57:21.520Z,37.80
2023-01-12T23:02:43.877Z,37.90
2023-01-12T23:07:47.025Z,37.90
2023-01-12T23:13:04.010Z,38.00
2023-01-12T23:18:09.564Z,38.00
2023-01-12T23:23:15.209Z,37.90
2023-01-12T23:28:18.328Z,37.90
2023-01-12T23:33:22.983Z,38.00
2023-01-12T23:38:26.064Z,37.70
2023-01-12T23:43:29.305Z,37.90
2023-01-12T23:48:33.813Z,37.80
2023-01-12T23:53:36.892Z,37.70
2023-01-12T23:58:40.258Z,37.90
